Terminal Aerodrome Forecast
Issued by NWS

Current Version | Previous Version | Graphics & Text | Print | Product List | Glossary On
Versions: 1 2 3 4 5 6 7 8 9 10 11 12 13 14 15 16 17 18 19 20 21 22 23 24 25
000
FTUS41 KPBZ 191700
TAFHLG
TAF
KHLG 191728Z 1918/2018 VRB06KT P6SM SCT040
     FM192100 23004KT P6SM BKN200
     FM201000 19008KT P6SM BKN030 BKN100=

USA.gov is the U.S. government's official web portal to all federal, state and local government web resources and services.